Explorer Of The Seas — C6SE4 — position and weather

sailwx.info

Track history (hours):
 
Tides and Currents Weather Stations Pressure Air Temp Water Temp Dewpoint Dewpoint Depression Visibility Wind Speed Wind Dir Waves Ship Positions

Explorer Of The Seas

Operator: Royal Caribbean Cruises Ltd

Last reported at 2015-Aug-05 04:33 UTC. Time now 2015-Aug-05 06:21 UTC.
Position N 38°20' E 001°11'.

Length 311 m; draft 9 m.

Type: Ship. MMSI: 311316000.

Date/timePositionNaut miles runAvg speedWind from/ knotsBaromVisibWave heightAir tempDewpointWater temp
2015-Aug-05 04:33N 38°20' E 001°11'2019.7
2015-Aug-05 03:33N 38°31' E 001°32'2119.5
2015-Aug-05 02:30N 38°43' E 001°53'1819.3
2015-Aug-05 01:33N 38°58' E 002°07'1919.1
2015-Aug-05 00:32N 39°14' E 002°22'1919.1
2015-Aug-04 23:33N 39°29' E 002°36'5 4.4
2015-Aug-04 22:31N 39°33' E 002°38'0 0.0
2015-Aug-04 21:28N 39°33' E 002°38'0 0.0
2015-Aug-04 20:31N 39°33' E 002°38'0 0.0
2015-Aug-04 19:31N 39°33' E 002°38'0 0.0
2015-Aug-04 18:28N 39°33' E 002°38'0 0.0
2015-Aug-04 17:31N 39°33' E 002°38'0 0.0
2015-Aug-04 16:31N 39°33' E 002°38'0 0.0
2015-Aug-04 15:31N 39°33' E 002°38'0 0.0
2015-Aug-04 14:31N 39°33' E 002°38'0 0.0
2015-Aug-04 13:31N 39°33' E 002°38'0 0.0
2015-Aug-04 12:31N 39°33' E 002°38'0 0.0
2015-Aug-04 11:31N 39°33' E 002°38'0 0.1
2015-Aug-04 10:33N 39°33' E 002°38'6 6.3
2015-Aug-04 09:33N 39°27' E 002°37'1414.4
2015-Aug-04 08:33N 39°14' E 002°45'1514.7
2015-Aug-04 07:31N 39°03' E 002°58'1515.5
2015-Aug-04 06:33N 39°02' E 003°17'1615.7
2015-Aug-04 05:33N 39°01' E 003°38'1717.3
2015-Aug-04 04:33N 38°59' E 003°60'2518.3
2015-Aug-04 03:12N 38°57' E 004°31'19218.0
2015-Aug-03 16:33N 38°48' E 008°38'247 5.8
2015-Aug-01 22:14N 42°52' E 007°43'1012.8
2015-Aug-01 21:28N 43°01' E 007°39'1312.8
2015-Aug-01 20:26N 43°14' E 007°33'2412.8
2015-Aug-01 18:33N 43°36' E 007°21'5 1.7
2015-Aug-01 15:28N 43°41' E 007°19'0 0.0
2015-Aug-01 06:29N 43°41' E 007°19'3 3.8
2015-Aug-01 05:33N 43°38' E 007°18'1414.3
2015-Aug-01 04:33N 43°24' E 007°11'3816.4
2015-Aug-01 02:12N 42°51' E 006°43'1218.1
2015-Aug-01 01:33N 42°44' E 006°31'1918.5
2015-Aug-01 00:32N 42°31' E 006°12'1818.4
2015-Jul-31 23:33N 42°18' E 005°55'2018.2
2015-Jul-31 22:27N 42°05' E 005°35'1618.2
2015-Jul-31 21:33N 41°54' E 005°18'1818.3
2015-Jul-31 20:33N 41°43' E 004°58'1818.4
2015-Jul-31 19:33N 41°31' E 004°41'1818.5
2015-Jul-31 18:33N 41°19' E 004°22'1818.0
2015-Jul-31 17:33N 41°06' E 004°04'27019.1
2015-Jul-31 03:23N 37°52' E 000°01'1518.3
2015-Jul-31 02:33N 37°41' W 000°12'1919.1
2015-Jul-31 01:33N 37°27' W 000°29'2119.3
2015-Jul-31 00:29N 37°14' W 000°49'334 7.6
2015-Jul-29 04:31N 36°10' W 007°38'1919.7
2015-Jul-29 03:33N 36°15' W 008°01'1919.6
2015-Jul-29 02:33N 36°22' W 008°24'2019.5
2015-Jul-29 01:33N 36°27' W 008°47'1918.9
2015-Jul-29 00:32N 36°33' W 009°10'1818.1
2015-Jul-28 23:33N 36°43' W 009°28'1918.7
2015-Jul-28 22:33N 37°00' W 009°37'2019.6
2015-Jul-28 21:33N 37°19' W 009°42'1919.4
2015-Jul-28 20:33N 37°38' W 009°48'2019.4
2015-Jul-28 19:33N 37°57' W 009°53'1919.5
2015-Jul-28 18:34N 38°16' W 009°58'2019.5
2015-Jul-28 17:33N 38°35' W 010°03'1919.3
2015-Jul-28 16:33N 38°55' W 010°05'2019.9
2015-Jul-28 15:33N 39°14' W 010°04'78017.2
2015-Jul-26 18:08N 50°33' W 001°02'916.1
2015-Jul-26 17:33N 50°42' W 000°58'1413.9
2015-Jul-26 16:33N 50°48' W 001°18'8 7.5
2015-Jul-26 15:33N 50°54' W 001°25'0 0.0
2015-Jul-26 14:33N 50°54' W 001°25'0 0.0
2015-Jul-26 13:33N 50°54' W 001°25'0 0.0
2015-Jul-26 12:32N 50°54' W 001°25'0 0.0
2015-Jul-26 11:31N 50°54' W 001°25'0 0.0
2015-Jul-26 10:33N 50°54' W 001°25'0 0.0
2015-Jul-26 09:33N 50°54' W 001°25'0 0.0
2015-Jul-26 08:25N 50°54' W 001°25'0 0.0
2015-Jul-26 07:33N 50°54' W 001°25'0 0.0
2015-Jul-26 06:33N 50°54' W 001°25'0 0.0
2015-Jul-26 05:33N 50°54' W 001°25'0 0.0
2015-Jul-26 04:33N 50°54' W 001°25'  
Track history (hours):
 
Tides and Currents Weather Stations Pressure Air Temp Water Temp Dewpoint Dewpoint Depression Visibility Wind Speed Wind Dir Waves Ship Positions

Explorer Of The Seas

Operator: Royal Caribbean Cruises Ltd

Last reported at 2015-Aug-05 04:33 UTC. Time now 2015-Aug-05 06:21 UTC.
Position N 38°20' E 001°11'.

Length 311 m; draft 9 m.

Type: Ship. MMSI: 311316000.

Date/timePositionNaut miles runAvg speedWind from/ knotsBaromVisibWave heightAir tempDewpointWater temp
2015-Aug-05 04:33N 38°20' E 001°11'2019.7
2015-Aug-05 03:33N 38°31' E 001°32'2119.5
2015-Aug-05 02:30N 38°43' E 001°53'1819.3
2015-Aug-05 01:33N 38°58' E 002°07'1919.1
2015-Aug-05 00:32N 39°14' E 002°22'1919.1
2015-Aug-04 23:33N 39°29' E 002°36'5 4.4
2015-Aug-04 22:31N 39°33' E 002°38'0 0.0
2015-Aug-04 21:28N 39°33' E 002°38'0 0.0
2015-Aug-04 20:31N 39°33' E 002°38'0 0.0
2015-Aug-04 19:31N 39°33' E 002°38'0 0.0
2015-Aug-04 18:28N 39°33' E 002°38'0 0.0
2015-Aug-04 17:31N 39°33' E 002°38'0 0.0
2015-Aug-04 16:31N 39°33' E 002°38'0 0.0
2015-Aug-04 15:31N 39°33' E 002°38'0 0.0
2015-Aug-04 14:31N 39°33' E 002°38'0 0.0
2015-Aug-04 13:31N 39°33' E 002°38'0 0.0
2015-Aug-04 12:31N 39°33' E 002°38'0 0.0
2015-Aug-04 11:31N 39°33' E 002°38'0 0.1
2015-Aug-04 10:33N 39°33' E 002°38'6 6.3
2015-Aug-04 09:33N 39°27' E 002°37'1414.4
2015-Aug-04 08:33N 39°14' E 002°45'1514.7
2015-Aug-04 07:31N 39°03' E 002°58'1515.5
2015-Aug-04 06:33N 39°02' E 003°17'1615.7
2015-Aug-04 05:33N 39°01' E 003°38'1717.3
2015-Aug-04 04:33N 38°59' E 003°60'2518.3
2015-Aug-04 03:12N 38°57' E 004°31'19218.0
2015-Aug-03 16:33N 38°48' E 008°38'247 5.8
2015-Aug-01 22:14N 42°52' E 007°43'1012.8
2015-Aug-01 21:28N 43°01' E 007°39'1312.8
2015-Aug-01 20:26N 43°14' E 007°33'2412.8
2015-Aug-01 18:33N 43°36' E 007°21'5 1.7
2015-Aug-01 15:28N 43°41' E 007°19'0 0.0
2015-Aug-01 06:29N 43°41' E 007°19'3 3.8
2015-Aug-01 05:33N 43°38' E 007°18'1414.3
2015-Aug-01 04:33N 43°24' E 007°11'3816.4
2015-Aug-01 02:12N 42°51' E 006°43'1218.1
2015-Aug-01 01:33N 42°44' E 006°31'1918.5
2015-Aug-01 00:32N 42°31' E 006°12'1818.4
2015-Jul-31 23:33N 42°18' E 005°55'2018.2
2015-Jul-31 22:27N 42°05' E 005°35'1618.2
2015-Jul-31 21:33N 41°54' E 005°18'1818.3
2015-Jul-31 20:33N 41°43' E 004°58'1818.4
2015-Jul-31 19:33N 41°31' E 004°41'1818.5
2015-Jul-31 18:33N 41°19' E 004°22'1818.0
2015-Jul-31 17:33N 41°06' E 004°04'27019.1
2015-Jul-31 03:23N 37°52' E 000°01'1518.3
2015-Jul-31 02:33N 37°41' W 000°12'1919.1
2015-Jul-31 01:33N 37°27' W 000°29'2119.3
2015-Jul-31 00:29N 37°14' W 000°49'334 7.6
2015-Jul-29 04:31N 36°10' W 007°38'1919.7
2015-Jul-29 03:33N 36°15' W 008°01'1919.6
2015-Jul-29 02:33N 36°22' W 008°24'2019.5
2015-Jul-29 01:33N 36°27' W 008°47'1918.9
2015-Jul-29 00:32N 36°33' W 009°10'1818.1
2015-Jul-28 23:33N 36°43' W 009°28'1918.7
2015-Jul-28 22:33N 37°00' W 009°37'2019.6
2015-Jul-28 21:33N 37°19' W 009°42'1919.4
2015-Jul-28 20:33N 37°38' W 009°48'2019.4
2015-Jul-28 19:33N 37°57' W 009°53'1919.5
2015-Jul-28 18:34N 38°16' W 009°58'2019.5
2015-Jul-28 17:33N 38°35' W 010°03'1919.3
2015-Jul-28 16:33N 38°55' W 010°05'2019.9
2015-Jul-28 15:33N 39°14' W 010°04'78017.2
2015-Jul-26 18:08N 50°33' W 001°02'916.1
2015-Jul-26 17:33N 50°42' W 000°58'1413.9
2015-Jul-26 16:33N 50°48' W 001°18'8 7.5
2015-Jul-26 15:33N 50°54' W 001°25'0 0.0
2015-Jul-26 14:33N 50°54' W 001°25'0 0.0
2015-Jul-26 13:33N 50°54' W 001°25'0 0.0
2015-Jul-26 12:32N 50°54' W 001°25'0 0.0
2015-Jul-26 11:31N 50°54' W 001°25'0 0.0
2015-Jul-26 10:33N 50°54' W 001°25'0 0.0
2015-Jul-26 09:33N 50°54' W 001°25'0 0.0
2015-Jul-26 08:25N 50°54' W 001°25'0 0.0
2015-Jul-26 07:33N 50°54' W 001°25'0 0.0
2015-Jul-26 06:33N 50°54' W 001°25'0 0.0
2015-Jul-26 05:33N 50°54' W 001°25'0 0.0
2015-Jul-26 04:33N 50°54' W 001°25'  

Dump ship's entire track history